x

Portland 12 Nm Southeast Of Portland,me (44007) Wave Buoy

9:50 - Thu 20th Jul 2017 All times are EDT. -4 hours from GMT.

  • Sig Wave height 2.0ft
  • Swell Direction
  • Peak Period 14s
  • Average Period 4s
  • Wind
    11mph, 13mph gusts
  • Sea Temp 65°f
  • Aire Temp 69°f
  • Sea Pressure 1008.8mb
  • Portland 12 Nm Southeast Of Portland,me
  • Portland 12 Nm Southeast Of Portland,me

More Historic Weather Station data

Upgrade to MSW Pro to gain access to the past 30 days of data for over 8000 Wavebouys and Weather Stations around the globe.

Join Pro

Comparision Forecast

View Surf forecast
   
jue 07/20 9:50 2ft 14s 4s 11 13 mph 1008.8mb 65f 69f
8:50 2ft 15s 4s 9 11 mph 1008.8mb 65f 69f
7:50 1.6ft 15s 4s 11 13 mph 1009.3mb 66f 70f
6:50 2.5ft 3s 4s 13 16 mph 1008.9mb 66f 70f
5:50 1.6ft 14s 4s 18 20 mph 1008.9mb 67f 72f
4:50 1.6ft 12s 5s 4 7 mph 1010mb 66f 70f
3:50 1.6ft 15s 6s 9 9 mph 1010.3mb 67f 71f
2:50 2ft 13s 6s 9 11 mph 1010.5mb 67f 71f
1:50 2ft 15s 6s 7 9 mph 1011mb 67f 71f
12:50 2ft 15s 6s 7 7 mph 1012.2mb 69f 72f
11:50 2ft 14s 6s 4 4 mph 1012.7mb 68f 71f
10:50 2ft 13s 6s 4 7 mph 1012.8mb 66f 69f
9:50 2ft 15s 6s 4 7 mph 1012.6mb 66f 69f
8:50 2ft 6s 5s 4 7 mph 1012.8mb 65f 69f
7:50 2ft 6s 5s 7 7 mph 1013mb 65f 68f
6:50 2ft 15s 5s 4 4 mph 1013mb 65f 68f
5:50 1.6ft 15s 5s 2 4 mph 1012.6mb 65f 67f
4:50 1.6ft 16s 6s 4 7 mph 1012.6mb 65f 67f
3:50 2ft 16s 6s 7 7 mph 1012.5mb 65f 66f
2:50 2ft 11s 6s 4 7 mph 1013mb 66f 66f
1:50 1.6ft 16s 6s 2 2 mph 1013.2mb 66f 65f
12:50 1.6ft 16s 6s  -  2 mph 1013mb 65f 64f
mié 07/19 11:50 1.6ft 15s 6s 4 4 mph 1013.3mb 65f 65f
10:50 1.6ft 13s 6s 4 4 mph 1013.3mb 66f 65f
9:50 2ft 15s 6s 9 13 mph 1013.1mb 67f 65f
8:50 2ft 14s 6s 4 7 mph 1012.4mb 67f 67f
7:50 1.6ft 15s 6s 2 4 mph 1012.3mb 67f 69f
6:50 2ft 16s 6s 4 4 mph 1012.4mb 68f 69f
5:50 1.6ft 8s 5s 4 4 mph 1012.6mb 68f 68f
4:50 1.6ft 8s 5s 4 4 mph 1013.1mb 68f 68f
3:50 2ft 16s 5s 7 9 mph 1013.4mb 67f 67f
2:50 2ft 16s 5s 11 13 mph 1013.8mb 68f 67f
1:50 2ft 16s 6s 11 13 mph 1014.5mb 68f 67f
12:50 2ft 12s 6s 9 11 mph 1015.1mb 68f 67f
11:50 2ft 6s 6s 9 11 mph 1015.5mb 67f 67f
10:50 2ft 16s 5s 7 9 mph 1016.1mb 67f 68f
9:50 2.5ft 7s 6s 4 7 mph 1016mb 67f 67f
8:50 2ft 16s 5s 4 4 mph 1016.5mb 67f 66f
7:50 2.5ft 7s 6s 2 2 mph 1016.4mb 66f 66f
6:50 2.5ft 7s 5s 4 4 mph 1016.4mb 66f 66f
5:50 2ft 7s 6s 4 4 mph 1016.3mb 67f 66f
4:50 2.5ft 7s 6s 4 7 mph 1016.3mb 67f 65f
3:50 2.5ft 8s 5s 2 4 mph 1016.5mb 67f 65f
2:50 2ft 17s 5s 7 7 mph 1016.5mb 67f 66f
1:50 2ft 14s 6s 7 7 mph 1017mb 67f 66f
12:50 2ft 13s 5s 9 9 mph 1017mb 67f 66f
mar 07/18 11:50 2ft 13s 5s 4 7 mph 1017.3mb 67f 66f
10:50 2.5ft 16s 5s 4 4 mph 1017.3mb 66f 68f
9:50 2ft 6s 5s 4 7 mph 1017mb 66f 68f
8:50 2.5ft 16s 5s 13 16 mph 1016.7mb 67f 67f
7:50 2.5ft 16s 5s 7 7 mph 1017.5mb 67f 67f
6:50 2.5ft 16s 5s 7 9 mph 1017.6mb 67f 67f
5:50 2.5ft 8s 5s 7 9 mph 1017.2mb 67f 67f
4:50 2.5ft 8s 5s 7 7 mph 1017.2mb 67f 67f
3:50 2ft 7s 5s 9 9 mph 1017.6mb 67f 67f
2:50 2ft 7s 5s 9 9 mph 1017.9mb 67f 67f
1:50 2ft 8s 5s 7 9 mph 1018.5mb 66f 67f
12:50 2ft 14s 5s 7 7 mph 1019.1mb 66f 66f
11:50 2ft 13s 5s 9 11 mph 1019.5mb 65f 66f
10:50 2.5ft 13s 5s 4 4 mph 1019.6mb 65f 65f
9:50 2.5ft 7s 5s 7 9 mph 1019.7mb 64f 65f
8:50 2.5ft 7s 5s 2 4 mph 1019.6mb 64f 65f
7:50 2.5ft 8s 5s 7 9 mph 1019.6mb 64f 65f
6:50 2.5ft 4s 5s 7 9 mph 1019.3mb 65f 65f
5:50 2.5ft 8s 5s 11 13 mph 1019mb 65f 66f
4:50 2.5ft 7s 4s 13 16 mph 1018.7mb 65f 66f
3:50 2.5ft 8s 5s 13 16 mph 1018.4mb 65f 66f
2:50 2.5ft 5s 4s 9 11 mph 1018.4mb 65f 67f
1:50 2.5ft 5s 4s 4 4 mph 1019.5mb 65f 67f
12:50 2.5ft 4s 4s 2 2 mph 1020.1mb 65f 66f
lun 07/17 11:50 3ft 5s 4s 7 9 mph 1020.1mb 65f 67f
10:50 3ft 4s 4s 4 7 mph 1020.1mb 65f 67f
9:50 3ft 4s 4s 13 16 mph 1019.2mb 65f 67f
8:50 2.5ft 6s 4s 13 18 mph 1018.8mb 65f 67f
7:50 2.5ft 6s 5s 16 18 mph 1018.7mb 66f 67f
6:50 2.5ft 6s 5s 11 13 mph 1018.8mb 67f 67f
5:50 2.5ft 7s 5s 11 13 mph 1018.3mb 67f 68f
4:50 2.5ft 7s 5s 9 11 mph 1018.1mb 67f 69f
3:50 2.5ft 8s 5s 9 11 mph 1018mb 67f 68f
2:50 2ft 7s 5s 7 9 mph 1018.4mb 67f 68f
1:50 2ft 8s 4s 7 7 mph 1018.7mb 66f 68f
12:50 2ft 8s 5s 2 4 mph 1019mb 65f 67f
11:50 2ft 7s 4s 7 9 mph 1019.1mb 65f 66f
10:50 2ft 8s 5s 4 7 mph 1019.3mb 65f 67f
9:50 2ft 7s 5s 7 9 mph 1019.1mb 65f 65f
8:50 2ft 7s 5s 4 7 mph 1018.3mb 65f 67f
7:50 2ft 6s 5s 4 7 mph 1017.6mb 65f 67f
6:50 2.5ft 6s 5s 2 2 mph 1017.2mb 64f 67f
5:50 2.5ft 6s 5s 2 4 mph 1016.7mb 64f 65f
4:50 2.5ft 7s 5s 4 7 mph 1016.1mb 64f 65f
3:50 2ft 6s 5s 4 7 mph 1015.8mb 64f 66f